createdAt,value
2023-04-24T00:02:14.660Z,4.22
2023-04-24T00:04:46.008Z,4.40
2023-04-24T00:07:14.330Z,4.57
2023-04-24T00:09:47.591Z,3.97
2023-04-24T00:12:14.408Z,4.30
2023-04-24T00:14:47.573Z,4.68
2023-04-24T00:17:14.625Z,4.80
2023-04-24T00:19:47.569Z,4.95
2023-04-24T00:22:14.615Z,5.05
2023-04-24T00:24:48.526Z,5.00
2023-04-24T00:27:15.366Z,4.85
2023-04-24T00:29:48.595Z,5.15
2023-04-24T00:32:15.942Z,5.53
2023-04-24T00:34:49.582Z,5.45
2023-04-24T00:37:16.590Z,5.50
2023-04-24T00:39:50.596Z,4.93
2023-04-24T00:42:17.414Z,5.40
2023-04-24T00:44:44.348Z,6.55
2023-04-24T00:47:18.736Z,6.20
2023-04-24T00:49:45.875Z,5.10
2023-04-24T00:52:20.535Z,5.55
2023-04-24T00:54:47.824Z,6.20
2023-04-24T00:57:25.550Z,6.22
2023-04-24T00:59:54.597Z,6.32
2023-04-24T01:02:30.652Z,6.40
2023-04-24T01:04:57.967Z,5.68
2023-04-24T01:07:32.812Z,6.55
2023-04-24T01:10:06.589Z,7.57
2023-04-24T01:12:40.697Z,7.70
2023-04-24T01:15:27.617Z,8.45
2023-04-24T01:18:00.670Z,7.30
2023-04-24T01:20:34.643Z,7.60
2023-04-24T01:23:01.761Z,8.00
2023-04-24T01:25:35.618Z,9.57
2023-04-24T01:28:08.609Z,9.38
2023-04-24T01:30:41.805Z,10.15
2023-04-24T01:33:08.904Z,10.27
2023-04-24T01:35:43.561Z,11.27
2023-04-24T01:38:10.414Z,10.48
2023-04-24T01:40:43.588Z,10.80
2023-04-24T01:43:10.648Z,10.82
2023-04-24T01:45:43.727Z,10.50
2023-04-24T01:48:17.656Z,10.27
2023-04-24T01:50:44.641Z,9.90
2023-04-24T01:53:19.699Z,9.43
2023-04-24T01:55:46.649Z,9.43
2023-04-24T01:58:19.606Z,9.20
2023-04-24T02:00:46.365Z,9.20
2023-04-24T02:03:19.665Z,9.75
2023-04-24T02:05:46.946Z,8.80
2023-04-24T02:08:20.597Z,8.82
2023-04-24T02:10:47.315Z,8.57
2023-04-24T02:13:20.708Z,8.48
2023-04-24T02:16:07.626Z,8.27
2023-04-24T02:18:40.748Z,8.02
2023-04-24T02:21:07.670Z,8.05
2023-04-24T02:23:42.061Z,8.15
2023-04-24T02:26:08.994Z,8.85
2023-04-24T02:28:42.655Z,8.07
2023-04-24T02:31:09.705Z,9.30
2023-04-24T02:33:43.644Z,9.18
2023-04-24T02:36:16.570Z,9.85
2023-04-24T02:38:43.342Z,9.40
2023-04-24T02:41:16.642Z,9.70
2023-04-24T02:43:43.435Z,10.27
2023-04-24T02:46:16.831Z,9.88
2023-04-24T02:48:43.606Z,10.93
2023-04-24T02:51:17.761Z,11.50
2023-04-24T02:53:44.746Z,11.23
2023-04-24T02:56:19.648Z,11.93
2023-04-24T02:58:46.479Z,12.13
2023-04-24T03:01:19.766Z,11.63
2023-04-24T03:03:46.876Z,10.95
2023-04-24T03:06:20.681Z,11.27
2023-04-24T03:08:47.746Z,9.40
2023-04-24T03:11:20.673Z,10.15
2023-04-24T03:13:53.665Z,8.45
2023-04-24T03:16:27.101Z,10.45
2023-04-24T03:19:00.699Z,10.52
2023-04-24T03:21:27.813Z,12.55
2023-04-24T03:24:00.696Z,13.63
2023-04-24T03:26:27.874Z,13.55
2023-04-24T03:29:01.614Z,13.60
2023-04-24T03:31:28.522Z,13.55
2023-04-24T03:34:02.722Z,13.68
2023-04-24T03:36:29.461Z,9.65
2023-04-24T03:39:02.671Z,9.73
2023-04-24T03:41:29.933Z,11.65
2023-04-24T03:44:03.665Z,11.38
2023-04-24T03:46:43.820Z,13.48
2023-04-24T03:49:10.735Z,11.50
2023-04-24T03:51:44.633Z,11.82
2023-04-24T03:54:11.721Z,12.45
2023-04-24T03:56:44.663Z,11.05
2023-04-24T03:59:11.826Z,11.38
2023-04-24T04:01:44.694Z,11.98
2023-04-24T04:04:11.784Z,9.68
2023-04-24T04:06:45.664Z,12.25
2023-04-24T04:09:18.613Z,13.77
2023-04-24T04:11:51.802Z,13.23
2023-04-24T04:14:18.602Z,13.77
2023-04-24T04:16:58.634Z,14.98
2023-04-24T04:19:25.599Z,14.57
2023-04-24T04:22:00.715Z,14.95
2023-04-24T04:24:27.777Z,13.57
2023-04-24T04:26:57.774Z,13.70
2023-04-24T04:29:31.743Z,14.15
2023-04-24T04:31:59.453Z,17.02
2023-04-24T04:34:32.726Z,16.40
2023-04-24T04:37:03.347Z,16.35
2023-04-24T04:39:38.731Z,16.02
2023-04-24T04:42:05.548Z,17.52
2023-04-24T04:44:38.679Z,17.40
2023-04-24T04:47:06.748Z,18.08
2023-04-24T04:49:40.896Z,17.08
2023-04-24T04:52:07.953Z,18.65
2023-04-24T04:54:41.796Z,17.73
2023-04-24T04:57:09.278Z,20.25
2023-04-24T04:59:36.340Z,20.60
2023-04-24T05:02:09.719Z,18.23
2023-04-24T05:04:36.608Z,20.00
2023-04-24T05:07:10.900Z,18.25
2023-04-24T05:09:38.483Z,19.05
2023-04-24T05:12:11.789Z,21.58
2023-04-24T05:14:38.596Z,20.45
2023-04-24T05:17:18.661Z,20.55
2023-04-24T05:19:46.514Z,20.75
2023-04-24T05:22:19.798Z,17.65
2023-04-24T05:24:46.668Z,19.88
2023-04-24T05:27:20.693Z,15.52
2023-04-24T05:29:47.523Z,15.18
2023-04-24T05:32:20.696Z,18.30
2023-04-24T05:34:47.768Z,17.38
2023-04-24T05:37:21.784Z,18.02
2023-04-24T05:39:54.853Z,18.92
2023-04-24T05:42:27.840Z,16.65
2023-04-24T05:45:02.671Z,19.17
2023-04-24T05:47:29.550Z,20.23
2023-04-24T05:50:02.802Z,19.25
2023-04-24T05:52:29.821Z,17.70
2023-04-24T05:55:03.870Z,16.30
2023-04-24T05:57:30.638Z,17.92
2023-04-24T06:00:03.700Z,19.83
2023-04-24T06:02:33.860Z,17.70
2023-04-24T06:05:07.886Z,17.55
2023-04-24T06:07:34.998Z,17.13
2023-04-24T06:10:08.799Z,17.83
2023-04-24T06:12:35.765Z,18.48
2023-04-24T06:15:08.745Z,17.08
2023-04-24T06:17:48.730Z,15.98
2023-04-24T06:20:21.792Z,18.17
2023-04-24T06:22:54.756Z,16.67
2023-04-24T06:25:28.797Z,17.08
2023-04-24T06:27:56.954Z,16.33
2023-04-24T06:30:24.135Z,15.82
2023-04-24T06:33:03.072Z,16.23
2023-04-24T06:35:37.613Z,14.75
2023-04-24T06:38:10.911Z,18.23
2023-04-24T06:40:41.804Z,17.02
2023-04-24T06:43:14.767Z,15.65
2023-04-24T06:45:44.725Z,16.08
2023-04-24T06:48:18.752Z,16.38
2023-04-24T06:50:46.331Z,15.05
2023-04-24T06:53:20.776Z,14.68
2023-04-24T06:55:53.775Z,17.00
2023-04-24T06:58:27.800Z,15.80
2023-04-24T07:01:00.856Z,14.40
2023-04-24T07:03:27.760Z,15.15
2023-04-24T07:06:02.715Z,15.10
2023-04-24T07:08:31.669Z,13.68
2023-04-24T07:11:04.868Z,14.85
2023-04-24T07:13:31.810Z,14.57
2023-04-24T07:16:06.031Z,13.95
2023-04-24T07:18:41.025Z,13.38
2023-04-24T07:21:14.760Z,13.52
2023-04-24T07:23:42.633Z,13.65
2023-04-24T07:26:15.836Z,13.85
2023-04-24T07:28:48.774Z,13.48
2023-04-24T07:31:22.991Z,12.88
2023-04-24T07:33:50.162Z,13.18
2023-04-24T07:36:20.065Z,12.52
2023-04-24T07:38:53.781Z,12.98
2023-04-24T07:41:21.687Z,12.88
2023-04-24T07:43:54.850Z,12.38
2023-04-24T07:46:22.070Z,12.57
2023-04-24T07:49:09.185Z,12.38
2023-04-24T07:51:40.396Z,11.38
2023-04-24T07:54:13.803Z,12.40
2023-04-24T07:56:43.260Z,11.05
2023-04-24T07:59:17.812Z,10.90
2023-04-24T08:01:44.636Z,9.93
2023-04-24T08:04:17.798Z,9.50
2023-04-24T08:06:51.758Z,8.48
2023-04-24T08:09:26.419Z,8.45
2023-04-24T08:12:01.809Z,7.90
2023-04-24T08:14:34.858Z,7.35
2023-04-24T08:17:14.896Z,6.85
2023-04-24T08:19:55.774Z,7.72
2023-04-24T08:22:28.889Z,7.45
2023-04-24T08:25:03.998Z,7.45
2023-04-24T08:27:30.854Z,8.18
2023-04-24T08:29:58.455Z,6.93
2023-04-24T08:32:31.938Z,7.00
2023-04-24T08:34:59.645Z,6.32
2023-04-24T08:37:34.826Z,6.43
2023-04-24T08:40:02.754Z,5.82
2023-04-24T08:42:36.797Z,6.20
2023-04-24T08:45:04.100Z,5.63
2023-04-24T08:47:37.888Z,5.63
2023-04-24T08:50:07.160Z,5.85
2023-04-24T08:52:41.812Z,5.30
2023-04-24T08:55:08.962Z,5.80
2023-04-24T08:57:47.307Z,5.32
2023-04-24T09:00:14.645Z,5.07
2023-04-24T09:02:50.999Z,4.95
2023-04-24T09:05:19.463Z,5.63
2023-04-24T09:07:56.987Z,4.30
2023-04-24T09:10:31.974Z,4.30
2023-04-24T09:13:02.592Z,3.60
2023-04-24T09:15:35.885Z,3.70
2023-04-24T09:18:10.009Z,3.70
2023-04-24T09:21:14.834Z,3.30
2023-04-24T09:23:42.392Z,3.15
2023-04-24T09:26:17.836Z,3.63
2023-04-24T09:28:45.295Z,5.53
2023-04-24T09:31:25.865Z,8.18
2023-04-24T09:33:59.776Z,7.95
2023-04-24T09:36:44.836Z,8.98
2023-04-24T09:39:13.313Z,9.68
2023-04-24T09:41:55.818Z,10.45
2023-04-24T09:44:24.424Z,10.02
2023-04-24T09:47:05.819Z,10.77
2023-04-24T09:49:37.034Z,10.93
2023-04-24T09:52:16.903Z,10.32
2023-04-24T09:55:00.843Z,10.48
2023-04-24T09:57:33.832Z,10.80
2023-04-24T10:00:01.015Z,10.40
2023-04-24T10:02:33.942Z,10.68
2023-04-24T10:05:08.011Z,11.18
2023-04-24T10:07:41.895Z,10.15
2023-04-24T10:10:15.897Z,10.32
2023-04-24T10:12:50.855Z,11.15
2023-04-24T10:15:38.912Z,10.20
2023-04-24T10:18:13.908Z,10.00
2023-04-24T10:20:48.844Z,10.18
2023-04-24T10:23:16.363Z,10.05
2023-04-24T10:25:49.803Z,11.00
2023-04-24T10:28:17.356Z,10.65
2023-04-24T10:30:51.007Z,11.50
2023-04-24T10:33:18.719Z,10.52
2023-04-24T10:35:56.773Z,10.10
2023-04-24T10:38:33.851Z,10.23
2023-04-24T10:41:24.656Z,10.57
2023-04-24T10:44:17.813Z,9.68
2023-04-24T10:46:46.631Z,8.38
2023-04-24T10:49:19.870Z,7.78
2023-04-24T10:51:48.418Z,7.30
2023-04-24T10:54:42.807Z,5.38
2023-04-24T10:57:30.817Z,4.90
2023-04-24T11:00:23.938Z,4.65
2023-04-24T11:03:01.000Z,4.57
2023-04-24T11:06:02.854Z,5.03
2023-04-24T11:08:52.828Z,4.75
2023-04-24T11:11:28.884Z,4.40
2023-04-24T11:14:04.914Z,4.88
2023-04-24T11:17:08.806Z,4.80
2023-04-24T11:19:41.874Z,4.72
2023-04-24T11:22:18.273Z,5.70
2023-04-24T11:24:54.089Z,5.10
2023-04-24T11:27:22.590Z,4.72
2023-04-24T11:30:05.056Z,5.63
2023-04-24T11:32:34.927Z,4.57
2023-04-24T11:35:11.819Z,4.70
2023-04-24T11:38:07.911Z,5.50
2023-04-24T11:40:39.114Z,4.93
2023-04-24T11:43:14.892Z,4.63
2023-04-24T11:45:55.976Z,3.80
2023-04-24T11:48:23.864Z,3.85
2023-04-24T11:50:57.897Z,3.50
2023-04-24T11:53:30.915Z,2.90
2023-04-24T11:55:57.707Z,2.97
2023-04-24T11:58:30.926Z,3.38
2023-04-24T12:01:02.478Z,3.10
2023-04-24T12:03:36.079Z,3.80
2023-04-24T12:06:09.120Z,3.40
2023-04-24T12:08:42.837Z,3.40
2023-04-24T12:11:09.929Z,3.17
2023-04-24T12:13:43.838Z,3.13
2023-04-24T12:16:17.240Z,3.22
2023-04-24T12:18:51.923Z,3.20
2023-04-24T12:21:29.910Z,2.42
2023-04-24T12:23:57.051Z,2.58
2023-04-24T12:26:30.967Z,3.08
2023-04-24T12:29:04.439Z,2.85
2023-04-24T12:31:39.923Z,2.83
2023-04-24T12:34:25.935Z,2.70
2023-04-24T12:36:53.318Z,2.78
2023-04-24T12:39:21.504Z,2.53
2023-04-24T12:42:12.951Z,2.63
2023-04-24T12:44:39.801Z,2.80
2023-04-24T12:47:12.971Z,2.97
2023-04-24T12:49:40.694Z,2.67
2023-04-24T12:52:13.886Z,2.80
2023-04-24T12:54:46.876Z,2.13
2023-04-24T12:57:13.819Z,2.50
2023-04-24T12:59:46.935Z,2.10
2023-04-24T13:02:14.062Z,1.98
2023-04-24T13:04:46.984Z,2.65
2023-04-24T13:07:15.197Z,2.35
2023-04-24T13:09:46.005Z,2.10
2023-04-24T13:12:19.924Z,1.88
2023-04-24T13:14:47.512Z,1.75
2023-04-24T13:17:22.089Z,1.55
2023-04-24T13:19:58.881Z,1.80
2023-04-24T13:22:26.179Z,1.98
2023-04-24T13:24:59.893Z,1.70
2023-04-24T13:27:26.665Z,1.80
2023-04-24T13:29:53.412Z,1.80
2023-04-24T13:32:26.949Z,1.70
2023-04-24T13:34:54.309Z,1.80
2023-04-24T13:37:27.961Z,2.13
2023-04-24T13:39:54.839Z,1.58
2023-04-24T13:42:28.028Z,1.60
2023-04-24T13:44:55.364Z,1.48
2023-04-24T13:47:28.982Z,1.20
2023-04-24T13:49:55.752Z,1.27
2023-04-24T13:52:28.924Z,1.25
2023-04-24T13:54:56.819Z,1.48
2023-04-24T13:57:23.707Z,1.35
2023-04-24T13:59:56.878Z,1.20
2023-04-24T14:02:23.771Z,1.45
2023-04-24T14:04:57.026Z,1.10
2023-04-24T14:07:26.971Z,1.25
2023-04-24T14:09:59.993Z,1.33
2023-04-24T14:12:27.127Z,1.33
2023-04-24T14:15:01.017Z,1.30
2023-04-24T14:17:34.081Z,1.30
2023-04-24T14:20:07.949Z,1.10
2023-04-24T14:22:34.673Z,1.02
2023-04-24T14:25:07.965Z,1.08
2023-04-24T14:27:36.094Z,1.30
2023-04-24T14:30:10.767Z,1.33
2023-04-24T14:32:40.338Z,1.05
2023-04-24T14:35:08.289Z,1.33
2023-04-24T14:37:41.928Z,1.10
2023-04-24T14:40:32.000Z,1.33
2023-04-24T14:43:05.951Z,1.23
2023-04-24T14:45:32.943Z,1.35
2023-04-24T14:48:06.069Z,1.38
2023-04-24T14:50:32.922Z,1.42
2023-04-24T14:53:05.947Z,1.50
2023-04-24T14:55:33.773Z,1.80
2023-04-24T14:58:06.981Z,1.80
2023-04-24T15:00:39.954Z,1.95
2023-04-24T15:03:07.112Z,2.17
2023-04-24T15:05:40.295Z,1.65
2023-04-24T15:08:07.281Z,1.88
2023-04-24T15:10:41.106Z,2.08
2023-04-24T15:13:14.039Z,2.33
2023-04-24T15:15:48.150Z,2.47
2023-04-24T15:18:21.505Z,2.28
2023-04-24T15:20:54.941Z,2.38
2023-04-24T15:23:21.797Z,2.95
2023-04-24T15:25:54.991Z,2.60
2023-04-24T15:28:22.957Z,2.65
2023-04-24T15:30:55.941Z,3.28
2023-04-24T15:33:22.739Z,3.05
2023-04-24T15:35:57.017Z,2.72
2023-04-24T15:38:23.917Z,2.90
2023-04-24T15:40:57.083Z,2.60
2023-04-24T15:43:30.450Z,2.78
2023-04-24T15:52:31.122Z,2.40
2023-04-24T15:55:19.047Z,3.72
2023-04-24T15:57:52.034Z,3.00
2023-04-24T16:00:19.398Z,2.90
2023-04-24T16:02:53.078Z,2.67
2023-04-24T16:05:26.165Z,3.10
2023-04-24T16:07:59.995Z,2.88
2023-04-24T16:10:33.037Z,2.60
2023-04-24T16:13:09.055Z,2.80
2023-04-24T16:15:39.190Z,2.25
2023-04-24T16:18:06.405Z,2.58
2023-04-24T16:20:39.985Z,3.00
2023-04-24T16:23:06.825Z,2.42
2023-04-24T16:25:40.304Z,2.70
2023-04-24T16:28:07.193Z,2.80
2023-04-24T16:30:40.008Z,2.70
2023-04-24T16:33:09.347Z,2.20
2023-04-24T16:35:43.041Z,2.70
2023-04-24T16:38:17.394Z,2.63
2023-04-24T16:40:51.060Z,3.08
2023-04-24T16:43:18.191Z,2.67
2023-04-24T16:45:45.666Z,2.25
2023-04-24T16:48:19.094Z,2.60
2023-04-24T16:50:46.728Z,2.80
2023-04-24T16:53:19.996Z,2.97
2023-04-24T16:55:53.411Z,2.92
2023-04-24T16:58:27.010Z,2.90
2023-04-24T17:01:00.176Z,2.85
2023-04-24T17:03:33.231Z,2.53
2023-04-24T17:06:00.824Z,2.40
2023-04-24T17:08:34.055Z,2.50
2023-04-24T17:11:00.918Z,2.80
2023-04-24T17:13:34.087Z,2.90
2023-04-24T17:16:07.096Z,3.88
2023-04-24T17:18:40.060Z,3.72
2023-04-24T17:21:13.061Z,3.25
2023-04-24T17:23:39.874Z,3.10
2023-04-24T17:26:13.069Z,3.25
2023-04-24T17:28:46.296Z,3.95
2023-04-24T17:31:13.295Z,3.30
2023-04-24T17:33:47.122Z,3.45
2023-04-24T17:36:20.115Z,2.85
2023-04-24T17:38:47.072Z,3.67
2023-04-24T17:41:23.013Z,3.47
2023-04-24T17:43:50.704Z,3.92
2023-04-24T17:46:24.155Z,3.20
2023-04-24T18:05:36.095Z,3.00
2023-04-24T18:08:10.243Z,2.70
2023-04-24T18:10:37.230Z,2.92
2023-04-24T18:13:11.484Z,3.10
2023-04-24T18:15:42.247Z,3.03
2023-04-24T18:18:17.097Z,3.22
2023-04-24T18:20:50.176Z,2.88
2023-04-24T18:23:16.922Z,2.72
2023-04-24T18:25:50.066Z,2.67
2023-04-24T18:28:16.830Z,3.05
2023-04-24T18:30:50.310Z,2.80
2023-04-24T18:33:17.179Z,2.80
2023-04-24T18:35:50.273Z,3.17
2023-04-24T18:38:17.411Z,3.47
2023-04-24T18:40:51.449Z,2.85
2023-04-24T18:43:18.602Z,3.47
2023-04-24T18:45:53.242Z,3.45
2023-04-24T18:48:20.218Z,3.03
2023-04-24T18:50:47.088Z,3.00
2023-04-24T18:53:22.085Z,2.90
2023-04-24T18:55:49.978Z,2.60
2023-04-24T18:58:23.144Z,3.20
2023-04-24T19:00:50.279Z,3.25
2023-04-24T19:03:24.236Z,2.97
2023-04-24T19:05:57.397Z,2.67
2023-04-24T19:08:31.153Z,2.58
2023-04-24T19:10:58.041Z,2.67
2023-04-24T19:13:31.129Z,3.28
2023-04-24T19:15:58.104Z,3.03
2023-04-24T19:18:33.117Z,2.58
2023-04-24T19:21:08.649Z,2.90
2023-04-24T19:23:39.756Z,2.90
2023-04-24T19:26:13.141Z,2.80
2023-04-24T19:28:40.111Z,3.72
2023-04-24T19:31:14.119Z,2.88
2023-04-24T19:33:41.173Z,3.00
2023-04-24T19:36:15.194Z,3.00
2023-04-24T19:38:42.493Z,3.15
2023-04-24T19:41:09.220Z,2.75
2023-04-24T19:43:42.123Z,3.03
2023-04-24T19:46:15.991Z,3.75
2023-04-24T19:48:51.046Z,3.30
2023-04-24T19:51:25.191Z,3.42
2023-04-24T19:53:59.127Z,3.25
2023-04-24T19:56:25.896Z,3.38
2023-04-24T19:58:59.262Z,3.58
2023-04-24T20:01:26.198Z,3.40
2023-04-24T20:04:00.361Z,3.45
2023-04-24T20:06:34.228Z,3.35
2023-04-24T20:09:07.193Z,3.35
2023-04-24T20:11:34.360Z,3.30
2023-04-24T20:14:10.160Z,3.50
2023-04-24T20:17:06.251Z,3.53
2023-04-24T20:19:39.141Z,3.63
2023-04-24T20:22:06.140Z,3.08
2023-04-24T20:24:40.130Z,3.60
2023-04-24T20:27:07.218Z,3.75
2023-04-24T20:29:40.152Z,3.47
2023-04-24T20:32:07.251Z,4.05
2023-04-24T20:34:41.196Z,3.95
2023-04-24T20:37:14.203Z,4.15
2023-04-24T20:39:41.132Z,4.55
2023-04-24T20:42:14.153Z,4.35
2023-04-24T20:44:41.899Z,5.22
2023-04-24T20:47:15.201Z,4.45
2023-04-24T20:49:42.444Z,4.30
2023-04-24T20:52:09.337Z,4.25
2023-04-24T20:54:43.211Z,4.72
2023-04-24T20:57:17.264Z,3.92
2023-04-24T20:59:44.065Z,4.15
2023-04-24T21:02:19.303Z,4.05
2023-04-24T21:04:53.232Z,4.55
2023-04-24T21:07:26.182Z,4.00
2023-04-24T21:09:53.233Z,4.18
2023-04-24T21:12:27.162Z,4.72
2023-04-24T21:15:00.175Z,4.10
2023-04-24T21:17:27.278Z,4.18
2023-04-24T21:20:03.287Z,4.25
2023-04-24T21:22:30.638Z,4.03
2023-04-24T21:25:04.326Z,3.88
2023-04-24T21:27:38.209Z,4.55
2023-04-24T21:30:13.348Z,4.82
2023-04-24T21:32:40.900Z,4.55
2023-04-24T21:35:15.131Z,4.22
2023-04-24T21:37:49.227Z,4.40
2023-04-24T21:40:16.537Z,4.95
2023-04-24T21:42:50.233Z,4.63
2023-04-24T21:45:19.674Z,4.70
2023-04-24T21:47:53.337Z,4.95
2023-04-24T21:50:20.386Z,4.50
2023-04-24T21:52:54.204Z,4.68
2023-04-24T21:55:21.865Z,4.38
2023-04-24T21:57:55.181Z,4.50
2023-04-24T22:00:29.349Z,4.68
2023-04-24T22:03:02.342Z,3.83
2023-04-24T22:05:49.209Z,4.57
2023-04-24T22:08:23.197Z,3.83
2023-04-24T22:10:58.226Z,4.95
2023-04-24T22:13:32.227Z,4.10
2023-04-24T22:15:59.180Z,4.53
2023-04-24T22:18:46.178Z,3.85
2023-04-24T22:21:20.161Z,4.72
2023-04-24T22:23:54.167Z,4.30
2023-04-24T22:26:21.214Z,4.15
2023-04-24T22:28:48.427Z,4.07
2023-04-24T22:31:22.239Z,4.47
2023-04-24T22:33:56.210Z,4.00
2023-04-24T22:36:23.002Z,4.17
2023-04-24T22:38:56.167Z,4.07
2023-04-24T22:41:29.173Z,3.92
2023-04-24T22:43:56.041Z,3.85
2023-04-24T22:46:31.200Z,3.78
2023-04-24T22:48:58.640Z,3.90
2023-04-24T22:51:33.158Z,3.47
2023-04-24T22:54:02.532Z,3.00
2023-04-24T22:56:36.146Z,2.85
2023-04-24T22:59:04.491Z,3.05
2023-04-24T23:01:38.209Z,2.88
2023-04-24T23:04:25.357Z,3.40
2023-04-24T23:06:58.154Z,3.33
2023-04-24T23:09:24.868Z,3.80
2023-04-24T23:11:58.233Z,3.58
2023-04-24T23:14:25.210Z,3.35
2023-04-24T23:16:58.271Z,4.00
2023-04-24T23:19:25.306Z,3.85
2023-04-24T23:21:58.246Z,4.53
2023-04-24T23:24:31.242Z,4.03
2023-04-24T23:26:58.039Z,4.43
2023-04-24T23:29:33.164Z,4.43
2023-04-24T23:32:02.073Z,3.92
2023-04-24T23:34:35.216Z,4.47
2023-04-24T23:37:01.968Z,3.90
2023-04-24T23:39:35.336Z,4.03
2023-04-24T23:42:03.117Z,4.18
2023-04-24T23:44:37.179Z,4.40
2023-04-24T23:47:03.952Z,4.45
2023-04-24T23:49:37.216Z,4.30
2023-04-24T23:52:04.573Z,5.35
2023-04-24T23:54:38.162Z,5.22
2023-04-24T23:57:04.843Z,5.25
2023-04-24T23:59:38.257Z,5.50
